EPLL/LCJ METAR and TAF weather

Enter ICAO airport designator
Station Type Date Time Source
EPLL METAR 2018/12/10 18:00 UTC NOAA

EPLL 101800Z 26013KT 9999 FEW011 SCT017 BKN038 03/00 Q1007


Station Type Date Time Source
EPLL Decoded METAR 2018/12/10 18:00 UTC NOAA

Station name not available
Dec 10, 2018 - 01:00 PM EST / 2018.12.10 1800 UTC
Wind: from the W (260 degrees) at 15 MPH (13 KT):0
Visibility: greater than 7 mile(s):0
Sky conditions: mostly cloudy
Temperature: 37 F (3 C)
Dew Point: 32 F (0 C)
Relative Humidity: 80%
Pressure (altimeter): 29.74 in. Hg (1007 hPa)
ob: EPLL 101800Z 26013KT 9999 FEW011 SCT017 BKN038 03/00 Q1007
cycle: 18

Station Type Date Time Source
EPLL TAF 2018/12/10 18:00 UTC NOAA

TAF EPLL 101730Z 1018/1118 26012KT 9999 SCT020 BKN040
TEMPO 1021/1106 3000 SHRASN BKN010 BKN015CB
BECMG 1106/1109 20010KT 4000 -RASN BR BKN010
TEMPO 1108/1118 1000 SHSNRA BKN007CB
BECMG 1109/1112 VRB03KT BKN004


Example: see airport list